Time;durP1;ratioP1;P1;durP2;ratioP2;P2;SDS_P1;SDS_P2;PMS_P1;PMS_P2;Temp;Humidity;BMP_temperature;BMP_pressure;BME280_temperature;BME280_humidity;BME280_pressure;Samples;Min_cycle;Max_cycle;Signal;HPM_P1;HPM_P2
2023/11/26 00:02:04;;;;;;;4.10;1.73;;;;;;;;;;4986415;28;20490;-77
2023/11/26 00:04:29;;;;;;;2.50;0.90;;;;;;;;;;4988589;28;20041;-78
2023/11/26 00:06:55;;;;;;;3.40;1.23;;;;;;;;;;4984637;28;20031;-77
2023/11/26 00:09:22;;;;;;;3.05;1.23;;;;;;;;;;4981964;28;20026;-77
2023/11/26 00:11:48;;;;;;;2.70;1.30;;;;;;;;;;4982630;28;20399;-77
2023/11/26 00:14:13;;;;;;;3.70;0.93;;;;;;;;;;4985882;28;20043;-77
2023/11/26 00:16:38;;;;;;;3.90;0.85;;;;;;;;;;4986536;28;20079;-77
2023/11/26 00:19:03;;;;;;;3.08;1.02;;;;;;;;;;4985006;28;20031;-77
2023/11/26 00:21:29;;;;;;;3.58;0.80;;;;;;;;;;4985288;28;20414;-77
2023/11/26 00:23:54;;;;;;;3.78;1.10;;;;;;;;;;4978531;28;20435;-77
2023/11/26 00:26:19;;;;;;;3.45;0.85;;;;;;;;;;4984468;28;20030;-77
2023/11/26 00:28:53;;;;;;;4.78;1.15;;;;;;;;;;4987175;28;20097;-77
2023/11/26 00:31:20;;;;;;;5.50;1.13;;;;;;;;;;4987710;28;20033;-77
2023/11/26 00:33:48;;;;;;;3.50;1.10;;;;;;;;;;4982841;28;20039;-77
2023/11/26 00:36:17;;;;;;;5.15;1.30;;;;;;;;;;4979387;28;20046;-77
2023/11/26 00:38:42;;;;;;;4.00;1.52;;;;;;;;;;4985758;28;20505;-78
2023/11/26 00:41:07;;;;;;;2.50;1.00;;;;;;;;;;4984727;28;20034;-77
2023/11/26 00:43:33;;;;;;;5.30;1.20;;;;;;;;;;4987792;28;20045;-78
2023/11/26 00:45:58;;;;;;;5.63;2.08;;;;;;;;;;4982445;28;20035;-76
2023/11/26 00:48:24;;;;;;;3.20;0.90;;;;;;;;;;4985767;28;20494;-76
2023/11/26 00:50:49;;;;;;;4.68;1.50;;;;;;;;;;4980806;28;20026;-78
2023/11/26 00:53:14;;;;;;;4.97;1.50;;;;;;;;;;4978521;28;20042;-77
2023/11/26 00:55:40;;;;;;;3.47;1.13;;;;;;;;;;4986696;28;20026;-77
2023/11/26 00:58:05;;;;;;;5.50;1.20;;;;;;;;;;4982057;28;20038;-77
2023/11/26 01:00:30;;;;;;;3.35;1.27;;;;;;;;;;4984802;28;20058;-77
2023/11/26 01:02:56;;;;;;;4.05;1.20;;;;;;;;;;4981058;28;20034;-78
2023/11/26 01:05:21;;;;;;;2.75;1.00;;;;;;;;;;4982293;28;20022;-78
2023/11/26 01:07:47;;;;;;;3.63;1.33;;;;;;;;;;4986820;28;20027;-77
2023/11/26 01:10:13;;;;;;;4.82;1.38;;;;;;;;;;4986904;28;20054;-78
2023/11/26 01:12:38;;;;;;;3.08;1.38;;;;;;;;;;4987686;28;20067;-77
2023/11/26 01:15:06;;;;;;;4.90;1.50;;;;;;;;;;4984104;28;20402;-77
2023/11/26 01:17:31;;;;;;;3.85;1.48;;;;;;;;;;4988096;28;20447;-78
2023/11/26 01:19:56;;;;;;;4.43;1.35;;;;;;;;;;4980220;28;20121;-77
2023/11/26 01:22:24;;;;;;;4.15;1.52;;;;;;;;;;4985261;28;20076;-77
2023/11/26 01:24:49;;;;;;;3.40;1.90;;;;;;;;;;4988453;28;20509;-78
2023/11/26 01:27:14;;;;;;;7.05;1.70;;;;;;;;;;4988752;28;20034;-77
2023/11/26 01:29:39;;;;;;;3.80;1.42;;;;;;;;;;4991922;28;20037;-77
2023/11/26 01:32:05;;;;;;;5.13;1.60;;;;;;;;;;4981485;28;20124;-79
2023/11/26 01:34:30;;;;;;;5.07;1.27;;;;;;;;;;4982544;28;20027;-78
2023/11/26 01:36:55;;;;;;;4.80;1.45;;;;;;;;;;4982594;28;20127;-79
2023/11/26 01:39:21;;;;;;;4.50;1.35;;;;;;;;;;4988746;28;20030;-78
2023/11/26 01:41:46;;;;;;;3.10;1.10;;;;;;;;;;4986086;28;20035;-78
2023/11/26 01:44:11;;;;;;;3.28;1.33;;;;;;;;;;4985630;28;20042;-77
2023/11/26 01:46:36;;;;;;;4.60;1.60;;;;;;;;;;4984139;28;20474;-78
2023/11/26 01:49:01;;;;;;;3.13;1.13;;;;;;;;;;4981892;28;20035;-78
2023/11/26 01:51:29;;;;;;;2.90;1.10;;;;;;;;;;4989751;28;20028;-78
2023/11/26 01:53:55;;;;;;;5.63;1.75;;;;;;;;;;4987947;28;20118;-77
2023/11/26 01:56:21;;;;;;;6.03;1.40;;;;;;;;;;4985104;28;20087;-78
2023/11/26 01:58:46;;;;;;;3.45;1.40;;;;;;;;;;5002106;28;20384;-78
2023/11/26 02:01:13;;;;;;;4.22;1.13;;;;;;;;;;4982259;28;20046;-78
2023/11/26 02:03:39;;;;;;;5.00;1.83;;;;;;;;;;4983149;28;20027;-78
2023/11/26 02:06:04;;;;;;;4.18;1.52;;;;;;;;;;4987504;28;20087;-78
2023/11/26 02:08:31;;;;;;;3.47;1.63;;;;;;;;;;4989034;28;20042;-78
2023/11/26 02:10:57;;;;;;;3.75;1.70;;;;;;;;;;4987273;28;20025;-78
2023/11/26 02:13:22;;;;;;;3.42;1.25;;;;;;;;;;4984965;28;20030;-77
2023/11/26 02:15:47;;;;;;;4.95;1.33;;;;;;;;;;4980047;28;20033;-77
2023/11/26 02:18:12;;;;;;;7.68;1.50;;;;;;;;;;4985507;28;20037;-77
2023/11/26 02:20:38;;;;;;;3.85;1.40;;;;;;;;;;4989346;28;20053;-78
2023/11/26 02:23:03;;;;;;;6.28;1.50;;;;;;;;;;4983023;28;20482;-77
2023/11/26 02:25:31;;;;;;;6.15;1.70;;;;;;;;;;4988855;28;20402;-77
2023/11/26 02:27:58;;;;;;;5.18;1.60;;;;;;;;;;4980545;28;20023;-77
2023/11/26 02:30:24;;;;;;;4.88;1.58;;;;;;;;;;4982541;28;20077;-76
2023/11/26 02:32:49;;;;;;;4.57;1.83;;;;;;;;;;4983472;28;20058;-77
2023/11/26 02:35:15;;;;;;;5.07;1.17;;;;;;;;;;4985777;28;20065;-77
2023/11/26 02:37:40;;;;;;;4.13;1.30;;;;;;;;;;4983567;28;20105;-77
2023/11/26 02:40:06;;;;;;;3.25;1.58;;;;;;;;;;4981339;28;20456;-77
2023/11/26 02:42:32;;;;;;;3.95;1.30;;;;;;;;;;4983701;28;20126;-76
2023/11/26 02:44:57;;;;;;;5.25;1.50;;;;;;;;;;4978981;28;20085;-76
2023/11/26 02:47:23;;;;;;;3.65;1.75;;;;;;;;;;4987697;28;20026;-76
2023/11/26 02:49:48;;;;;;;4.97;1.60;;;;;;;;;;4988531;28;20034;-76
2023/11/26 02:52:13;;;;;;;3.55;1.33;;;;;;;;;;4983180;28;20019;-76
2023/11/26 02:54:38;;;;;;;6.18;1.83;;;;;;;;;;4987092;28;20034;-76
2023/11/26 02:57:06;;;;;;;7.53;1.42;;;;;;;;;;4981819;28;20035;-76
2023/11/26 02:59:31;;;;;;;5.28;1.65;;;;;;;;;;4985740;28;20128;-76
2023/11/26 03:01:59;;;;;;;4.97;1.48;;;;;;;;;;4986508;28;20045;-76
2023/11/26 03:04:26;;;;;;;5.25;1.50;;;;;;;;;;4985128;28;20030;-76
2023/11/26 03:06:52;;;;;;;6.63;1.70;;;;;;;;;;4982576;28;20179;-76
2023/11/26 03:12:56;;;;;;;26.92;4.10;;;;;;;;;;4983187;28;20122;-76
2023/11/26 03:14:58;;;;;;;4.47;1.35;;;;;;;;;;4987360;28;20022;-76
2023/11/26 03:17:25;;;;;;;3.95;1.45;;;;;;;;;;4985061;28;20022;-76
2023/11/26 03:19:50;;;;;;;3.28;1.10;;;;;;;;;;4984518;28;20029;-77
2023/11/26 03:22:15;;;;;;;5.88;1.15;;;;;;;;;;4984040;28;20034;-77
2023/11/26 03:24:42;;;;;;;5.80;2.05;;;;;;;;;;4964706;28;20095;-76
2023/11/26 03:27:08;;;;;;;3.55;0.90;;;;;;;;;;4982683;28;20038;-76
2023/11/26 03:29:33;;;;;;;3.80;1.00;;;;;;;;;;4987750;28;20027;-76
2023/11/26 03:31:58;;;;;;;2.95;1.00;;;;;;;;;;4986651;28;20448;-76
2023/11/26 03:34:28;;;;;;;6.85;1.27;;;;;;;;;;4984659;28;20418;-76
2023/11/26 03:36:53;;;;;;;3.78;1.40;;;;;;;;;;4981773;28;20037;-76
2023/11/26 03:39:18;;;;;;;4.25;1.40;;;;;;;;;;4980307;28;20034;-76
2023/11/26 03:41:44;;;;;;;3.60;1.45;;;;;;;;;;4988043;28;20380;-76
2023/11/26 03:44:09;;;;;;;2.08;0.85;;;;;;;;;;4987081;28;20073;-76
2023/11/26 03:46:35;;;;;;;2.05;0.93;;;;;;;;;;4985558;28;20041;-76
2023/11/26 03:49:01;;;;;;;1.90;1.00;;;;;;;;;;4982513;28;20038;-76
2023/11/26 03:51:28;;;;;;;3.10;0.70;;;;;;;;;;4981564;28;20371;-76
2023/11/26 03:53:53;;;;;;;2.35;0.80;;;;;;;;;;4981883;28;20056;-76
2023/11/26 03:56:19;;;;;;;2.25;0.70;;;;;;;;;;4987583;28;20026;-76
2023/11/26 03:58:44;;;;;;;3.08;0.93;;;;;;;;;;4987530;28;20163;-76
2023/11/26 04:01:09;;;;;;;3.28;1.40;;;;;;;;;;4983439;28;20037;-76
2023/11/26 04:03:35;;;;;;;3.22;1.20;;;;;;;;;;4983958;28;20058;-76
2023/11/26 04:06:00;;;;;;;3.78;1.00;;;;;;;;;;4987317;28;20547;-76
2023/11/26 04:08:26;;;;;;;6.20;0.80;;;;;;;;;;4979692;28;20041;-76
2023/11/26 04:10:52;;;;;;;2.10;0.77;;;;;;;;;;4987703;28;20040;-76
2023/11/26 04:13:18;;;;;;;3.88;1.33;;;;;;;;;;4986018;28;20114;-76
2023/11/26 04:15:54;;;;;;;4.63;1.30;;;;;;;;;;4984600;28;20418;-76
2023/11/26 04:18:19;;;;;;;3.45;1.30;;;;;;;;;;4982079;28;20422;-76
2023/11/26 04:20:47;;;;;;;4.22;1.70;;;;;;;;;;4980552;28;20050;-76
2023/11/26 04:23:12;;;;;;;6.13;1.38;;;;;;;;;;4982164;28;20034;-76
2023/11/26 04:25:38;;;;;;;4.38;1.60;;;;;;;;;;4986776;28;20027;-76
2023/11/26 04:28:03;;;;;;;2.63;1.10;;;;;;;;;;4991301;28;20030;-76
2023/11/26 04:30:28;;;;;;;4.20;1.17;;;;;;;;;;4984074;28;20486;-76
2023/11/26 04:32:53;;;;;;;4.30;1.55;;;;;;;;;;4981705;28;20072;-76
2023/11/26 04:35:19;;;;;;;4.10;1.70;;;;;;;;;;4979184;28;20031;-76
2023/11/26 04:37:44;;;;;;;4.00;1.52;;;;;;;;;;4982803;28;20042;-76
2023/11/26 04:40:10;;;;;;;4.57;1.65;;;;;;;;;;4983978;28;20069;-76
2023/11/26 04:42:35;;;;;;;3.33;1.27;;;;;;;;;;4988060;28;20091;-75
2023/11/26 04:45:01;;;;;;;4.57;1.30;;;;;;;;;;4983946;28;20397;-76
2023/11/26 04:47:27;;;;;;;4.20;1.55;;;;;;;;;;4986574;28;20514;-76
2023/11/26 04:49:57;;;;;;;3.58;1.40;;;;;;;;;;4987133;28;20038;-75
2023/11/26 04:52:23;;;;;;;2.50;1.30;;;;;;;;;;4987918;28;20096;-75
2023/11/26 04:54:48;;;;;;;2.88;1.23;;;;;;;;;;4988131;28;20046;-76
2023/11/26 04:57:13;;;;;;;4.10;1.73;;;;;;;;;;4985357;28;21250;-76
2023/11/26 04:59:39;;;;;;;3.35;1.20;;;;;;;;;;4988952;28;20029;-76
2023/11/26 05:02:09;;;;;;;3.33;1.63;;;;;;;;;;4984666;28;20538;-76
2023/11/26 05:04:34;;;;;;;4.85;1.42;;;;;;;;;;4984190;28;20042;-76
2023/11/26 05:07:00;;;;;;;3.42;1.60;;;;;;;;;;4989707;28;20034;-76
2023/11/26 05:09:25;;;;;;;4.05;1.80;;;;;;;;;;4988010;28;20056;-76
2023/11/26 05:11:50;;;;;;;4.65;1.88;;;;;;;;;;4986615;28;20371;-75
2023/11/26 05:14:16;;;;;;;3.22;1.55;;;;;;;;;;4988966;28;20458;-75
2023/11/26 05:16:41;;;;;;;5.88;1.52;;;;;;;;;;4988718;28;20534;-76
2023/11/26 05:19:06;;;;;;;3.17;1.48;;;;;;;;;;4987417;28;20079;-76
2023/11/26 05:21:32;;;;;;;3.33;1.73;;;;;;;;;;4990050;28;20057;-76
2023/11/26 05:23:57;;;;;;;6.13;1.67;;;;;;;;;;4984095;28;20505;-76
2023/11/26 05:26:23;;;;;;;3.58;1.52;;;;;;;;;;4979318;28;20030;-76
2023/11/26 05:28:49;;;;;;;4.40;1.40;;;;;;;;;;4982169;28;20129;-76
2023/11/26 05:31:14;;;;;;;2.95;1.65;;;;;;;;;;4989589;28;20105;-76
2023/11/26 05:33:40;;;;;;;3.73;1.80;;;;;;;;;;5003267;28;20020;-76
2023/11/26 05:36:05;;;;;;;3.90;1.77;;;;;;;;;;4988920;28;20063;-76
2023/11/26 05:38:31;;;;;;;4.53;1.75;;;;;;;;;;4987220;28;20065;-76
2023/11/26 05:40:56;;;;;;;3.08;1.48;;;;;;;;;;4986420;28;20037;-76
2023/11/26 05:43:21;;;;;;;3.25;1.23;;;;;;;;;;4987394;28;20490;-76
2023/11/26 05:45:46;;;;;;;4.38;1.60;;;;;;;;;;4984201;28;20609;-76
2023/11/26 05:48:11;;;;;;;3.85;1.42;;;;;;;;;;4998740;28;20034;-76
2023/11/26 05:50:37;;;;;;;3.35;1.50;;;;;;;;;;4984020;28;20037;-76
2023/11/26 05:53:02;;;;;;;2.72;1.23;;;;;;;;;;4987750;28;20063;-76
2023/11/26 05:55:27;;;;;;;2.63;1.20;;;;;;;;;;4986122;28;20019;-76
2023/11/26 05:57:53;;;;;;;5.03;1.30;;;;;;;;;;4985282;28;20084;-76
2023/11/26 06:00:18;;;;;;;3.40;1.40;;;;;;;;;;4986244;28;20038;-76
2023/11/26 06:02:44;;;;;;;3.25;1.40;;;;;;;;;;4989483;28;20054;-76
2023/11/26 06:05:09;;;;;;;6.57;1.73;;;;;;;;;;4984538;28;20045;-76
2023/11/26 06:07:34;;;;;;;5.57;2.20;;;;;;;;;;4987960;28;20072;-77
2023/11/26 06:09:59;;;;;;;3.95;1.52;;;;;;;;;;4986126;28;20076;-76
2023/11/26 06:12:25;;;;;;;4.65;1.73;;;;;;;;;;4990102;28;20034;-77
2023/11/26 06:14:50;;;;;;;3.70;1.60;;;;;;;;;;4995971;28;20079;-77
2023/11/26 06:17:15;;;;;;;3.92;1.58;;;;;;;;;;4985687;28;20099;-77
2023/11/26 06:19:41;;;;;;;3.95;1.50;;;;;;;;;;4985569;28;20502;-77
2023/11/26 06:22:06;;;;;;;3.67;1.77;;;;;;;;;;4984312;28;20031;-77
2023/11/26 06:24:32;;;;;;;7.18;1.52;;;;;;;;;;4987520;28;20152;-76
2023/11/26 06:26:58;;;;;;;4.88;1.65;;;;;;;;;;4985999;28;20031;-76
2023/11/26 06:29:23;;;;;;;5.38;1.85;;;;;;;;;;4988166;28;20469;-76
2023/11/26 06:31:48;;;;;;;2.83;1.33;;;;;;;;;;4989612;28;20030;-76
2023/11/26 06:34:14;;;;;;;4.38;1.27;;;;;;;;;;4985126;28;20100;-75
2023/11/26 06:36:39;;;;;;;4.57;1.63;;;;;;;;;;4985447;28;20034;-76
2023/11/26 06:39:06;;;;;;;4.45;1.50;;;;;;;;;;4984340;28;20108;-76
2023/11/26 06:41:34;;;;;;;5.07;1.85;;;;;;;;;;4987149;28;20034;-75
2023/11/26 06:43:59;;;;;;;6.28;1.70;;;;;;;;;;4982214;28;20196;-75
2023/11/26 06:46:26;;;;;;;4.13;1.10;;;;;;;;;;4987183;28;20177;-76
2023/11/26 06:48:52;;;;;;;3.53;1.35;;;;;;;;;;4986732;28;20034;-76
2023/11/26 06:51:19;;;;;;;4.75;1.40;;;;;;;;;;4982242;28;20597;-76
2023/11/26 06:53:45;;;;;;;4.47;1.67;;;;;;;;;;4983627;28;20106;-76
2023/11/26 06:56:10;;;;;;;3.03;1.30;;;;;;;;;;4983950;28;20442;-76
2023/11/26 06:58:39;;;;;;;6.72;1.98;;;;;;;;;;4985676;28;20455;-76
2023/11/26 07:01:05;;;;;;;4.85;1.73;;;;;;;;;;4990671;28;20030;-76
2023/11/26 07:03:30;;;;;;;3.53;1.77;;;;;;;;;;4985967;28;20518;-76
2023/11/26 07:05:56;;;;;;;5.75;1.83;;;;;;;;;;4983894;28;20517;-76
2023/11/26 07:08:21;;;;;;;6.57;2.20;;;;;;;;;;4988715;28;20494;-77
2023/11/26 07:10:46;;;;;;;5.93;2.60;;;;;;;;;;4988045;28;20452;-76
2023/11/26 07:13:11;;;;;;;4.57;2.25;;;;;;;;;;4987226;28;20084;-76
2023/11/26 07:15:37;;;;;;;3.75;1.50;;;;;;;;;;4985934;28;20479;-76
2023/11/26 07:18:03;;;;;;;3.95;1.88;;;;;;;;;;4985132;28;20035;-76
2023/11/26 07:20:28;;;;;;;4.32;1.77;;;;;;;;;;4985823;28;20095;-77
2023/11/26 07:22:53;;;;;;;3.45;1.88;;;;;;;;;;4985228;28;20027;-76
2023/11/26 07:25:19;;;;;;;4.00;1.67;;;;;;;;;;4985071;28;20053;-77
2023/11/26 07:27:44;;;;;;;4.28;1.95;;;;;;;;;;4992080;28;20039;-76
2023/11/26 07:30:09;;;;;;;6.07;2.47;;;;;;;;;;4986340;28;20095;-76
2023/11/26 07:32:35;;;;;;;5.57;1.98;;;;;;;;;;4982541;28;20080;-76
2023/11/26 07:35:00;;;;;;;4.72;2.33;;;;;;;;;;4985011;28;20101;-76
2023/11/26 07:37:27;;;;;;;4.75;2.15;;;;;;;;;;4984244;28;22125;-76
2023/11/26 07:39:52;;;;;;;5.65;2.35;;;;;;;;;;4987263;28;20054;-76
2023/11/26 07:42:17;;;;;;;5.60;2.00;;;;;;;;;;4983255;28;20066;-76
2023/11/26 07:44:43;;;;;;;4.30;2.33;;;;;;;;;;4983436;28;20026;-76
2023/11/26 07:47:08;;;;;;;4.10;2.22;;;;;;;;;;4983020;28;20035;-77
2023/11/26 07:49:36;;;;;;;5.90;2.90;;;;;;;;;;4984491;28;20057;-76
2023/11/26 07:52:01;;;;;;;6.07;3.08;;;;;;;;;;4988815;28;20444;-76
2023/11/26 07:54:26;;;;;;;6.30;3.03;;;;;;;;;;4982414;28;20042;-76
2023/11/26 07:56:51;;;;;;;5.28;2.88;;;;;;;;;;4985862;28;20030;-76
2023/11/26 07:59:17;;;;;;;6.78;3.20;;;;;;;;;;4982547;28;20027;-76
2023/11/26 08:01:42;;;;;;;5.05;2.88;;;;;;;;;;4986590;28;20027;-76
2023/11/26 08:04:07;;;;;;;6.38;3.40;;;;;;;;;;4984629;28;20034;-78
2023/11/26 08:06:32;;;;;;;7.00;3.20;;;;;;;;;;4981628;28;20037;-76
2023/11/26 08:08:58;;;;;;;6.18;3.40;;;;;;;;;;5004054;28;20027;-76
2023/11/26 08:11:24;;;;;;;5.95;3.10;;;;;;;;;;4982027;28;20027;-76
2023/11/26 08:13:49;;;;;;;6.07;2.50;;;;;;;;;;4983796;28;20027;-76
2023/11/26 08:16:17;;;;;;;7.30;3.20;;;;;;;;;;4983115;28;20122;-76
2023/11/26 08:18:42;;;;;;;6.60;4.10;;;;;;;;;;4988363;28;20030;-78
2023/11/26 08:21:08;;;;;;;6.20;3.20;;;;;;;;;;4985463;28;20517;-76
2023/11/26 08:23:34;;;;;;;7.57;3.33;;;;;;;;;;4991903;28;20447;-76
2023/11/26 08:26:01;;;;;;;5.97;2.63;;;;;;;;;;4987721;28;20568;-75
2023/11/26 08:28:29;;;;;;;6.38;3.47;;;;;;;;;;4988461;28;20034;-76
2023/11/26 08:30:55;;;;;;;5.32;3.42;;;;;;;;;;4985725;28;20030;-75
2023/11/26 08:33:22;;;;;;;6.80;3.42;;;;;;;;;;4988581;28;20121;-76
2023/11/26 08:35:51;;;;;;;6.07;3.42;;;;;;;;;;4987294;28;20031;-75
2023/11/26 08:38:16;;;;;;;6.00;3.35;;;;;;;;;;4986817;28;20083;-76
2023/11/26 08:40:41;;;;;;;6.95;4.15;;;;;;;;;;4988659;28;20490;-76
2023/11/26 08:43:12;;;;;;;7.72;3.90;;;;;;;;;;4987563;28;20557;-75
2023/11/26 08:45:38;;;;;;;7.18;3.88;;;;;;;;;;4990541;28;20547;-76
2023/11/26 08:48:05;;;;;;;9.95;3.90;;;;;;;;;;4986331;28;20041;-76
2023/11/26 08:50:31;;;;;;;5.63;3.53;;;;;;;;;;4990296;28;20100;-76
2023/11/26 08:52:56;;;;;;;5.43;2.75;;;;;;;;;;4987807;28;20026;-75
2023/11/26 08:55:21;;;;;;;6.28;3.08;;;;;;;;;;4986912;28;20037;-76
2023/11/26 08:57:46;;;;;;;7.43;3.38;;;;;;;;;;4988860;28;20045;-76
2023/11/26 09:00:12;;;;;;;6.05;3.40;;;;;;;;;;4986145;28;20513;-76
2023/11/26 09:02:40;;;;;;;7.38;3.92;;;;;;;;;;4990693;28;20035;-76
2023/11/26 09:05:09;;;;;;;6.45;3.55;;;;;;;;;;4988939;28;20490;-76
2023/11/26 09:07:41;;;;;;;7.05;4.10;;;;;;;;;;4983080;28;20121;-75
2023/11/26 09:10:06;;;;;;;8.07;3.90;;;;;;;;;;4977776;28;20096;-76
2023/11/26 09:12:31;;;;;;;10.23;4.60;;;;;;;;;;4986285;28;20022;-76
2023/11/26 09:14:57;;;;;;;7.50;4.10;;;;;;;;;;4987007;28;20058;-76
2023/11/26 09:17:22;;;;;;;12.48;4.32;;;;;;;;;;4987160;28;20065;-76
2023/11/26 09:19:48;;;;;;;7.55;3.58;;;;;;;;;;4986343;28;20387;-76
2023/11/26 09:22:13;;;;;;;7.30;3.92;;;;;;;;;;4986602;28;20035;-77
2023/11/26 09:24:38;;;;;;;6.63;3.20;;;;;;;;;;4990762;28;20390;-77
2023/11/26 09:27:03;;;;;;;7.75;3.78;;;;;;;;;;4985299;28;20084;-76
2023/11/26 09:29:29;;;;;;;6.93;3.35;;;;;;;;;;4990043;28;20539;-78
2023/11/26 09:31:54;;;;;;;9.52;3.35;;;;;;;;;;4991699;28;20478;-77
2023/11/26 09:34:19;;;;;;;8.95;3.35;;;;;;;;;;4986070;28;20107;-77
2023/11/26 09:36:45;;;;;;;5.82;3.88;;;;;;;;;;4987891;28;20081;-77
2023/11/26 09:39:11;;;;;;;6.30;3.35;;;;;;;;;;4985736;28;20027;-78
2023/11/26 09:41:36;;;;;;;6.82;3.55;;;;;;;;;;4986335;28;20026;-77
2023/11/26 09:44:02;;;;;;;7.32;3.40;;;;;;;;;;4988409;28;20411;-77
2023/11/26 09:46:29;;;;;;;6.70;3.20;;;;;;;;;;4988001;28;20088;-77
2023/11/26 09:48:54;;;;;;;5.07;3.28;;;;;;;;;;4987459;28;20095;-77
2023/11/26 09:51:23;;;;;;;5.70;3.60;;;;;;;;;;4988071;28;20527;-78
2023/11/26 09:53:49;;;;;;;6.43;3.25;;;;;;;;;;4988151;28;20390;-77
2023/11/26 09:56:15;;;;;;;4.85;2.83;;;;;;;;;;4986136;28;20034;-78
2023/11/26 09:58:40;;;;;;;5.97;3.00;;;;;;;;;;4990041;28;20030;-77
2023/11/26 10:01:06;;;;;;;6.38;3.13;;;;;;;;;;4997913;28;20118;-78
2023/11/26 10:03:31;;;;;;;6.97;3.78;;;;;;;;;;4992353;28;20390;-77
2023/11/26 10:06:17;;;;;;;8.27;2.95;;;;;;;;;;4987099;28;20071;-77
2023/11/26 10:08:42;;;;;;;5.18;2.65;;;;;;;;;;4988293;28;20088;-77
2023/11/26 10:11:07;;;;;;;5.70;2.85;;;;;;;;;;4992421;28;20026;-77
2023/11/26 10:13:38;;;;;;;6.70;2.65;;;;;;;;;;4985215;28;20031;-77
2023/11/26 10:16:04;;;;;;;6.47;2.70;;;;;;;;;;4985749;28;20547;-77
2023/11/26 10:18:39;;;;;;;6.07;3.03;;;;;;;;;;4989155;28;20035;-77
2023/11/26 10:21:04;;;;;;;6.07;3.05;;;;;;;;;;4987620;28;20093;-77
2023/11/26 10:23:35;;;;;;;5.65;2.83;;;;;;;;;;4986131;28;20035;-78
2023/11/26 10:26:01;;;;;;;6.90;2.38;;;;;;;;;;4983568;28;20026;-78
2023/11/26 10:28:26;;;;;;;7.57;2.70;;;;;;;;;;4982015;28;20739;-78
2023/11/26 10:30:51;;;;;;;7.05;2.72;;;;;;;;;;4989159;28;20091;-79
2023/11/26 10:33:17;;;;;;;4.47;2.00;;;;;;;;;;4986795;28;20027;-79
2023/11/26 10:35:43;;;;;;;3.97;2.20;;;;;;;;;;4986212;28;20029;-80
2023/11/26 10:38:09;;;;;;;7.68;2.30;;;;;;;;;;4983989;28;20058;-79
2023/11/26 10:40:35;;;;;;;6.10;2.10;;;;;;;;;;4989347;28;20027;-79
2023/11/26 10:43:01;;;;;;;5.70;2.00;;;;;;;;;;4984436;28;20038;-78
2023/11/26 10:45:27;;;;;;;5.65;2.08;;;;;;;;;;4987054;28;20039;-79
2023/11/26 10:47:53;;;;;;;5.57;1.88;;;;;;;;;;4987710;28;20103;-78
2023/11/26 10:50:19;;;;;;;4.55;1.98;;;;;;;;;;4982888;28;20050;-79
2023/11/26 10:52:49;;;;;;;3.40;1.60;;;;;;;;;;4989560;28;20030;-79
2023/11/26 10:55:17;;;;;;;7.82;2.25;;;;;;;;;;4988006;28;20038;-79
2023/11/26 10:57:43;;;;;;;5.93;1.80;;;;;;;;;;4994545;28;20473;-79
2023/11/26 11:00:10;;;;;;;6.03;1.77;;;;;;;;;;4988408;28;20062;-78
2023/11/26 11:02:36;;;;;;;5.82;1.75;;;;;;;;;;4990092;28;20042;-79
2023/11/26 11:05:04;;;;;;;4.07;1.92;;;;;;;;;;4985326;28;20627;-78
2023/11/26 11:07:29;;;;;;;5.50;1.60;;;;;;;;;;4985034;28;20411;-78
2023/11/26 11:09:57;;;;;;;6.72;1.52;;;;;;;;;;4989104;28;20038;-78
2023/11/26 11:12:24;;;;;;;3.83;1.55;;;;;;;;;;4986646;28;20046;-78
2023/11/26 11:14:51;;;;;;;3.53;1.98;;;;;;;;;;4986485;28;20086;-79
2023/11/26 11:17:27;;;;;;;5.63;1.95;;;;;;;;;;4983596;28;20113;-77
2023/11/26 11:19:53;;;;;;;3.78;1.83;;;;;;;;;;4981086;28;20031;-79
2023/11/26 11:22:18;;;;;;;6.63;2.38;;;;;;;;;;4987909;28;20062;-78
2023/11/26 11:24:44;;;;;;;5.10;2.22;;;;;;;;;;4987046;28;20069;-76
2023/11/26 11:27:09;;;;;;;5.32;2.45;;;;;;;;;;4984396;28;20156;-76
2023/11/26 11:29:34;;;;;;;5.50;2.35;;;;;;;;;;4986129;28;20506;-77
2023/11/26 11:32:01;;;;;;;7.03;2.17;;;;;;;;;;4981677;28;20490;-77
2023/11/26 11:34:27;;;;;;;6.00;2.35;;;;;;;;;;4982273;28;20035;-77
2023/11/26 11:36:54;;;;;;;3.20;1.58;;;;;;;;;;4983816;28;20046;-77
2023/11/26 11:39:21;;;;;;;3.65;1.55;;;;;;;;;;4988012;28;20027;-77
2023/11/26 11:42:03;;;;;;;7.07;1.73;;;;;;;;;;4987641;28;20052;-78
2023/11/26 11:44:35;;;;;;;4.23;1.57;;;;;;;;;;4978094;28;20418;-77
2023/11/26 11:47:00;;;;;;;4.10;1.48;;;;;;;;;;4983239;28;20526;-76
2023/11/26 11:49:31;;;;;;;5.20;1.40;;;;;;;;;;4986408;28;20072;-77
2023/11/26 11:51:57;;;;;;;5.47;1.55;;;;;;;;;;4983386;28;20122;-77
2023/11/26 11:54:28;;;;;;;3.00;1.48;;;;;;;;;;4986181;28;20461;-76
2023/11/26 11:56:58;;;;;;;3.97;1.88;;;;;;;;;;4984362;28;20052;-76
2023/11/26 11:59:24;;;;;;;4.80;1.70;;;;;;;;;;4983925;28;20026;-76
2023/11/26 12:01:50;;;;;;;5.22;2.05;;;;;;;;;;4980483;28;20095;-77
2023/11/26 12:04:15;;;;;;;5.68;2.47;;;;;;;;;;4982971;28;20042;-78
2023/11/26 12:06:47;;;;;;;5.70;2.20;;;;;;;;;;4980359;28;20402;-76
2023/11/26 12:09:12;;;;;;;3.90;1.63;;;;;;;;;;4980885;28;20047;-78
2023/11/26 12:11:45;;;;;;;4.65;1.90;;;;;;;;;;4982880;28;20079;-76
2023/11/26 12:14:10;;;;;;;4.60;2.30;;;;;;;;;;4982780;28;20105;-76
2023/11/26 12:16:35;;;;;;;5.55;2.70;;;;;;;;;;4982853;28;20118;-77
2023/11/26 12:19:01;;;;;;;5.13;2.45;;;;;;;;;;4988641;28;20030;-78
2023/11/26 12:21:26;;;;;;;7.53;2.47;;;;;;;;;;4985581;28;20046;-77
2023/11/26 12:23:51;;;;;;;5.85;3.15;;;;;;;;;;4986469;28;20038;-77
2023/11/26 12:26:16;;;;;;;6.57;2.47;;;;;;;;;;4982453;28;20122;-77
2023/11/26 12:28:42;;;;;;;4.72;2.15;;;;;;;;;;4982517;28;20406;-76
2023/11/26 12:31:09;;;;;;;6.05;2.42;;;;;;;;;;4984321;28;20027;-76
2023/11/26 12:33:34;;;;;;;4.68;2.35;;;;;;;;;;4982479;28;20018;-76
2023/11/26 12:36:00;;;;;;;5.30;2.22;;;;;;;;;;4985186;28;20520;-76
2023/11/26 12:38:26;;;;;;;5.25;2.55;;;;;;;;;;4982984;28;20027;-77
2023/11/26 12:40:56;;;;;;;7.43;2.83;;;;;;;;;;4982103;28;20409;-76
2023/11/26 12:43:21;;;;;;;6.45;2.67;;;;;;;;;;4980028;28;20049;-77
2023/11/26 12:45:46;;;;;;;6.10;2.38;;;;;;;;;;4986762;28;20034;-76
2023/11/26 12:48:12;;;;;;;4.28;2.25;;;;;;;;;;4983248;28;20046;-76
2023/11/26 12:50:43;;;;;;;5.05;2.85;;;;;;;;;;4980663;28;20039;-76
2023/11/26 12:53:12;;;;;;;7.40;2.72;;;;;;;;;;4980804;28;20473;-76
2023/11/26 12:55:45;;;;;;;4.38;2.33;;;;;;;;;;4983405;28;20027;-76
2023/11/26 12:58:10;;;;;;;;;;;;;;;;;;4977638;28;20395;-76
2023/11/26 13:00:39;;;;;;;5.70;2.97;;;;;;;;;;4977396;28;19920;-76
2023/11/26 13:03:04;;;;;;;4.82;2.38;;;;;;;;;;4979494;28;20050;-76
2023/11/26 13:05:30;;;;;;;4.40;2.53;;;;;;;;;;4982817;28;20248;-76
2023/11/26 13:07:56;;;;;;;5.90;2.10;;;;;;;;;;4990216;28;20046;-77
2023/11/26 13:10:39;;;;;;;7.50;2.20;;;;;;;;;;4986074;28;20166;-76
2023/11/26 13:13:05;;;;;;;5.00;2.10;;;;;;;;;;4988728;28;20057;-77
2023/11/26 13:15:30;;;;;;;4.40;2.25;;;;;;;;;;4987624;28;20026;-77
2023/11/26 13:17:57;;;;;;;4.47;2.20;;;;;;;;;;4990250;28;20026;-77
2023/11/26 13:20:23;;;;;;;6.60;2.17;;;;;;;;;;4989187;28;20034;-77
2023/11/26 13:22:54;;;;;;;4.45;1.90;;;;;;;;;;4991057;28;20037;-77
2023/11/26 13:25:19;;;;;;;5.20;2.60;;;;;;;;;;4987430;28;20034;-77
2023/11/26 13:27:45;;;;;;;6.05;2.30;;;;;;;;;;4988239;28;20037;-77
2023/11/26 13:30:11;;;;;;;6.93;3.05;;;;;;;;;;4987813;28;20091;-77
2023/11/26 13:32:36;;;;;;;6.13;2.97;;;;;;;;;;4989081;28;20492;-77
2023/11/26 13:35:01;;;;;;;5.35;2.50;;;;;;;;;;4984035;28;20033;-77
2023/11/26 13:37:26;;;;;;;5.10;2.65;;;;;;;;;;4986993;28;20448;-77
2023/11/26 13:39:51;;;;;;;5.00;2.75;;;;;;;;;;4986013;28;20022;-76
2023/11/26 13:42:17;;;;;;;9.07;3.03;;;;;;;;;;4981872;28;20068;-77
2023/11/26 13:44:42;;;;;;;5.95;2.85;;;;;;;;;;4983749;28;20038;-76
2023/11/26 13:47:07;;;;;;;4.25;2.70;;;;;;;;;;4981853;28;20038;-77
2023/11/26 13:49:32;;;;;;;7.40;3.30;;;;;;;;;;4983342;28;20546;-77
2023/11/26 13:52:00;;;;;;;6.65;2.88;;;;;;;;;;4981531;28;20026;-77
2023/11/26 13:54:25;;;;;;;6.53;3.10;;;;;;;;;;4980534;28;20038;-77
2023/11/26 13:56:50;;;;;;;6.18;3.00;;;;;;;;;;4985482;28;20034;-77
2023/11/26 13:59:17;;;;;;;6.50;3.25;;;;;;;;;;4984798;28;20100;-77
2023/11/26 14:01:43;;;;;;;5.70;3.13;;;;;;;;;;4983524;28;20037;-77
2023/11/26 14:04:08;;;;;;;6.70;3.20;;;;;;;;;;4982959;28;20038;-77
2023/11/26 14:06:33;;;;;;;6.90;3.58;;;;;;;;;;4980417;28;20072;-77
2023/11/26 14:08:58;;;;;;;8.43;3.33;;;;;;;;;;4985627;28;20031;-77
2023/11/26 14:11:25;;;;;;;8.40;3.63;;;;;;;;;;4981137;28;20485;-76
2023/11/26 14:13:50;;;;;;;6.97;3.60;;;;;;;;;;4980827;28;20099;-76
2023/11/26 14:16:15;;;;;;;6.18;3.13;;;;;;;;;;4981548;28;20039;-77
2023/11/26 14:18:40;;;;;;;9.50;3.17;;;;;;;;;;4986960;28;20027;-77
2023/11/26 14:21:06;;;;;;;8.52;4.28;;;;;;;;;;4978956;28;20088;-76
2023/11/26 14:23:31;;;;;;;7.43;4.47;;;;;;;;;;4979400;28;20076;-77
2023/11/26 14:25:56;;;;;;;8.27;4.85;;;;;;;;;;4983548;28;20554;-76
2023/11/26 14:28:21;;;;;;;8.45;4.50;;;;;;;;;;4980311;28;20077;-76
2023/11/26 14:30:48;;;;;;;11.65;4.82;;;;;;;;;;4982712;28;20376;-77
2023/11/26 14:33:13;;;;;;;8.77;4.90;;;;;;;;;;4978998;28;20045;-77
2023/11/26 14:35:38;;;;;;;6.28;3.38;;;;;;;;;;4981948;28;20380;-77
2023/11/26 14:38:06;;;;;;;5.80;2.97;;;;;;;;;;4982607;28;20510;-77
2023/11/26 14:40:31;;;;;;;6.45;3.63;;;;;;;;;;4982861;28;20383;-77